• Join FlightAware (Why Join?)
  • Login
  • US Flag 
07:42PM EDT


 

Airport Tracker/Info


-or-


 

Live Flight TrackerFlight Track Log ✈ GGA1 ✈ 30-Aug-2013 ✈ KAHN - KSSI

Flight Track Log - Related Links

Times and Time Zones

All times are in EDT time to prevent confusion due to time zone crossing. See the GGA1 flight status page for this flight to view local times or setup timezone preferences in your user account.

Time Position Orientation Groundspeed Altitude Reporting Facility
EDT Latitude Longitude Course Direction KTS MPH feet Rate Location/Type
05:32PM 33.9500 -83.3000 151° Southeast 131 151 1,700  Level Atlanta TRACON
05:34PM 33.8817 -83.2731 162° South 145 167 5,000 1,920 Climbing Atlanta Center
05:35PM 33.8375 -83.2436 151° Southeast 163 188 7,000 1,920 Climbing Atlanta Center
05:36PM 33.8019 -83.2014 135° Southeast 175 201 8,900 1,800 Climbing Atlanta Center
05:37PM 33.7703 -83.1542 129° Southeast 180 207 10,700 1,800 Climbing Atlanta Center
05:38PM 33.6757 -83.1311 151° Southeast  Level Estimated
05:38PM 33.7200 -83.1247 154° Southeast 185 213 12,500  Level Atlanta Center
05:39PM 33.6717 -83.0953 153° Southeast 201 231 14,400 1,800 Climbing Atlanta Center
05:40PM 33.6211 -83.0583 149° Southeast 201 231 16,200 2,280 Climbing Atlanta Center
05:41PM 33.5708 -83.0242 150° Southeast 207 238 19,000 1,320 Climbing Atlanta Center
05:42PM 33.5183 -82.9847 148° Southeast 213 245 18,900  Descending Atlanta Center
05:43PM 33.4597 -82.9506 154° Southeast 233 268 19,000  Climbing Atlanta Center
05:44PM 33.3967 -82.9042 148° Southeast 257 296 19,000  Level Atlanta Center
05:45PM 33.3272 -82.8578 151° Southeast 277 319 19,000  Level Atlanta Center
05:46PM 33.2600 -82.8067 148° Southeast 277 319 19,000  Level Atlanta Center
05:47PM 33.1928 -82.7606 150° Southeast 282 325 19,000  Level Atlanta Center
05:48PM 33.1233 -82.7119 150° Southeast 282 325 19,000  Level Atlanta Center
05:49PM 33.0539 -82.6683 152° Southeast 287 330 19,000  Level Atlanta Center
05:50PM 32.9844 -82.6175 148° Southeast 287 330 19,000  Level Atlanta Center
05:51PM 32.9150 -82.5739 152° Southeast 287 330 19,000  Level Atlanta Center
05:52PM 32.8478 -82.5231 148° Southeast 287 330 19,000  Level Atlanta Center
05:53PM 32.7783 -82.4775 151° Southeast 287 330 19,000  Level Atlanta Center
05:54PM 32.7108 -82.4317 150° Southeast 287 330 19,000  Level Atlanta Center
05:55PM 32.6414 -82.3861 151° Southeast 287 330 19,000  Level Atlanta Center
05:56PM 32.5675 -82.3333 149° Southeast 287 330 19,000  Level Atlanta Center
05:57PM 32.5042 -82.2803 145° Southeast 287 330 19,000  Level Atlanta Center
05:59PM 32.3881 -82.1914 147° Southeast 288 331 19,000  Level Jacksonville Center
06:00PM 32.3272 -82.1453 147° Southeast 282 325 19,000  Level Jacksonville Center
06:01PM 32.2558 -82.0892 146° Southeast 282 325 19,000  Level Jacksonville Center
06:02PM 32.1950 -82.0308 141° Southeast 282 325 19,000  Level Jacksonville Center
06:03PM 32.1342 -81.9922 152° Southeast 282 325 19,000 -60 Level Jacksonville Center
06:04PM 32.0564 -81.9439 152° Southeast 287 330 18,900 -660 Descending Jacksonville Center
06:05PM 31.9872 -81.9056 155° Southeast 292 336 17,700 -1,380 Descending Jacksonville Center
06:06PM 31.9158 -81.8547 149° Southeast 286 329 16,200 -1,440 Descending Jacksonville Center
06:07PM 31.8508 -81.8164 153° Southeast 260 299 14,900 -1,380 Descending Jacksonville Center
06:08PM 31.7983 -81.7853 153° Southeast 247 284 13,500 -1,500 Descending Jacksonville Center
06:09PM 31.7333 -81.7444 152° Southeast 237 273 11,900 -1,260 Descending Jacksonville Center
06:10PM 31.6808 -81.7158 155° Southeast 237 273 11,000 -480 Descending Jacksonville Center
06:11PM 31.6200 -81.6825 155° Southeast 232 267 11,000  Level Jacksonville Center
06:12PM 31.5656 -81.6564 158° South 213 245 11,000 -540 Level Jacksonville Center
06:13PM 31.5089 -81.6400 166° South 208 239 10,000 -960 Descending Jacksonville Center
06:14PM 31.4567 -81.6214 163° South 208 239 9,100 -540 Descending Jacksonville Center
06:15PM 31.4083 -81.6025 162° South 198 228 9,000 -120 Descending Jacksonville Center
06:16PM 31.3581 -81.5836 162° South 198 228 8,900 -600 Descending Jacksonville Center
06:17PM 31.3094 -81.5333 139° Southeast 204 235 7,800 -960 Descending Jacksonville Center
06:18PM 31.2736 -81.4875 132° Southeast 204 235 7,000 -420 Descending Jacksonville Center
06:19PM 31.2375 -81.4444 134° Southeast 198 228 7,000  Level Jacksonville Center
06:20PM 31.2014 -81.4014 134° Southeast 193 222 7,000 -240 Level Jacksonville Center
06:21PM 31.1633 -81.3606 137° Southeast 179 206 6,600 -420 Descending Jacksonville Center